sensor_id;sensor_type;location;lat;lon;timestamp;temperature;humidity
6357;DHT22;3211;53.452;-2.264;2024-02-14T00:02:17;9.70;99.90
6357;DHT22;3211;53.452;-2.264;2024-02-14T00:05:07;9.70;99.90
6357;DHT22;3211;53.452;-2.264;2024-02-14T00:07:56;9.80;99.90
6357;DHT22;3211;53.452;-2.264;2024-02-14T00:10:43;9.80;99.90
6357;DHT22;3211;53.452;-2.264;2024-02-14T00:13:31;9.80;99.90
6357;DHT22;3211;53.452;-2.264;2024-02-14T00:16:20;9.80;99.90
6357;DHT22;3211;53.452;-2.264;2024-02-14T00:19:07;9.80;99.90
6357;DHT22;3211;53.452;-2.264;2024-02-14T00:21:56;9.80;99.90
6357;DHT22;3211;53.452;-2.264;2024-02-14T00:24:43;9.80;99.90
6357;DHT22;3211;53.452;-2.264;2024-02-14T00:27:30;9.80;99.90
6357;DHT22;3211;53.452;-2.264;2024-02-14T00:30:17;9.80;99.90
6357;DHT22;3211;53.452;-2.264;2024-02-14T00:33:05;9.80;99.90
6357;DHT22;3211;53.452;-2.264;2024-02-14T00:35:52;9.80;99.90
6357;DHT22;3211;53.452;-2.264;2024-02-14T00:38:41;9.80;99.90
6357;DHT22;3211;53.452;-2.264;2024-02-14T00:41:28;9.80;99.90
6357;DHT22;3211;53.452;-2.264;2024-02-14T00:44:16;9.80;99.90
6357;DHT22;3211;53.452;-2.264;2024-02-14T00:47:04;9.80;99.90
6357;DHT22;3211;53.452;-2.264;2024-02-14T00:49:52;9.80;99.90
6357;DHT22;3211;53.452;-2.264;2024-02-14T00:52:39;9.80;99.90
6357;DHT22;3211;53.452;-2.264;2024-02-14T00:55:28;9.80;99.90
6357;DHT22;3211;53.452;-2.264;2024-02-14T00:58:15;9.80;99.90
6357;DHT22;3211;53.452;-2.264;2024-02-14T01:01:02;9.80;99.90
6357;DHT22;3211;53.452;-2.264;2024-02-14T01:03:49;9.90;99.90
6357;DHT22;3211;53.452;-2.264;2024-02-14T01:06:37;9.90;99.90
6357;DHT22;3211;53.452;-2.264;2024-02-14T01:09:24;9.90;99.90
6357;DHT22;3211;53.452;-2.264;2024-02-14T01:12:13;9.90;99.90
6357;DHT22;3211;53.452;-2.264;2024-02-14T01:15:00;9.90;99.90
6357;DHT22;3211;53.452;-2.264;2024-02-14T01:17:47;9.90;99.90
6357;DHT22;3211;53.452;-2.264;2024-02-14T01:20:35;9.90;99.90
6357;DHT22;3211;53.452;-2.264;2024-02-14T01:23:23;10.00;99.90
6357;DHT22;3211;53.452;-2.264;2024-02-14T01:26:10;10.00;99.90
6357;DHT22;3211;53.452;-2.264;2024-02-14T01:28:59;10.00;99.90
6357;DHT22;3211;53.452;-2.264;2024-02-14T01:31:47;10.10;99.90
6357;DHT22;3211;53.452;-2.264;2024-02-14T01:34:34;10.00;99.90
6357;DHT22;3211;53.452;-2.264;2024-02-14T01:37:22;10.10;99.90
6357;DHT22;3211;53.452;-2.264;2024-02-14T01:40:10;10.10;99.90
6357;DHT22;3211;53.452;-2.264;2024-02-14T01:42:57;10.10;99.90
6357;DHT22;3211;53.452;-2.264;2024-02-14T01:45:46;10.20;99.90
6357;DHT22;3211;53.452;-2.264;2024-02-14T01:48:34;10.20;99.90
6357;DHT22;3211;53.452;-2.264;2024-02-14T01:51:22;10.20;99.90
6357;DHT22;3211;53.452;-2.264;2024-02-14T01:54:12;10.20;99.90
6357;DHT22;3211;53.452;-2.264;2024-02-14T01:57:00;10.30;99.90
6357;DHT22;3211;53.452;-2.264;2024-02-14T01:59:49;10.30;99.90
6357;DHT22;3211;53.452;-2.264;2024-02-14T02:02:38;10.30;99.90
6357;DHT22;3211;53.452;-2.264;2024-02-14T02:05:25;10.30;99.90
6357;DHT22;3211;53.452;-2.264;2024-02-14T02:08:12;10.30;99.90
6357;DHT22;3211;53.452;-2.264;2024-02-14T02:11:00;10.40;99.90
6357;DHT22;3211;53.452;-2.264;2024-02-14T02:13:47;10.40;99.90
6357;DHT22;3211;53.452;-2.264;2024-02-14T02:16:35;10.40;99.90
6357;DHT22;3211;53.452;-2.264;2024-02-14T02:19:25;10.40;99.90
6357;DHT22;3211;53.452;-2.264;2024-02-14T02:22:12;10.40;99.90
6357;DHT22;3211;53.452;-2.264;2024-02-14T02:25:01;10.40;99.90
6357;DHT22;3211;53.452;-2.264;2024-02-14T02:27:48;10.40;99.90
6357;DHT22;3211;53.452;-2.264;2024-02-14T02:30:36;10.50;99.90
6357;DHT22;3211;53.452;-2.264;2024-02-14T02:33:23;10.50;99.90
6357;DHT22;3211;53.452;-2.264;2024-02-14T02:36:12;10.50;99.90
6357;DHT22;3211;53.452;-2.264;2024-02-14T02:38:59;10.50;99.90
6357;DHT22;3211;53.452;-2.264;2024-02-14T02:41:48;10.50;99.90
6357;DHT22;3211;53.452;-2.264;2024-02-14T02:44:38;10.50;99.90
6357;DHT22;3211;53.452;-2.264;2024-02-14T02:47:26;10.60;99.90
6357;DHT22;3211;53.452;-2.264;2024-02-14T02:50:13;10.60;99.90
6357;DHT22;3211;53.452;-2.264;2024-02-14T02:53:01;10.60;99.90
6357;DHT22;3211;53.452;-2.264;2024-02-14T02:55:48;10.60;99.90
6357;DHT22;3211;53.452;-2.264;2024-02-14T02:58:39;10.60;99.90
6357;DHT22;3211;53.452;-2.264;2024-02-14T03:01:26;10.60;99.90
6357;DHT22;3211;53.452;-2.264;2024-02-14T03:04:14;10.60;99.90
6357;DHT22;3211;53.452;-2.264;2024-02-14T03:07:01;10.60;99.90
6357;DHT22;3211;53.452;-2.264;2024-02-14T03:09:53;10.60;99.90
6357;DHT22;3211;53.452;-2.264;2024-02-14T03:12:41;10.60;99.90
6357;DHT22;3211;53.452;-2.264;2024-02-14T03:15:29;10.60;99.90
6357;DHT22;3211;53.452;-2.264;2024-02-14T03:18:16;10.60;99.90
6357;DHT22;3211;53.452;-2.264;2024-02-14T03:21:04;10.60;99.90
6357;DHT22;3211;53.452;-2.264;2024-02-14T03:23:52;10.60;99.90
6357;DHT22;3211;53.452;-2.264;2024-02-14T03:26:40;10.60;99.90
6357;DHT22;3211;53.452;-2.264;2024-02-14T03:29:27;10.60;99.90
6357;DHT22;3211;53.452;-2.264;2024-02-14T03:32:16;10.70;99.90
6357;DHT22;3211;53.452;-2.264;2024-02-14T03:35:04;10.70;99.90
6357;DHT22;3211;53.452;-2.264;2024-02-14T03:37:51;10.70;99.90
6357;DHT22;3211;53.452;-2.264;2024-02-14T03:40:39;10.70;99.90
6357;DHT22;3211;53.452;-2.264;2024-02-14T03:43:27;10.70;99.90
6357;DHT22;3211;53.452;-2.264;2024-02-14T03:46:15;10.70;99.90
6357;DHT22;3211;53.452;-2.264;2024-02-14T03:49:05;10.70;99.90
6357;DHT22;3211;53.452;-2.264;2024-02-14T03:51:52;10.70;99.90
6357;DHT22;3211;53.452;-2.264;2024-02-14T03:54:40;10.70;99.90
6357;DHT22;3211;53.452;-2.264;2024-02-14T03:57:28;10.70;99.90
6357;DHT22;3211;53.452;-2.264;2024-02-14T04:00:21;10.70;99.90
6357;DHT22;3211;53.452;-2.264;2024-02-14T04:03:11;10.70;99.90
6357;DHT22;3211;53.452;-2.264;2024-02-14T04:06:03;10.70;99.90
6357;DHT22;3211;53.452;-2.264;2024-02-14T04:08:50;10.70;99.90
6357;DHT22;3211;53.452;-2.264;2024-02-14T04:11:38;10.70;99.90
6357;DHT22;3211;53.452;-2.264;2024-02-14T04:14:25;10.70;99.90
6357;DHT22;3211;53.452;-2.264;2024-02-14T04:17:13;10.70;99.90
6357;DHT22;3211;53.452;-2.264;2024-02-14T04:20:00;10.70;99.90
6357;DHT22;3211;53.452;-2.264;2024-02-14T04:22:49;10.70;99.90
6357;DHT22;3211;53.452;-2.264;2024-02-14T04:25:36;10.70;99.90
6357;DHT22;3211;53.452;-2.264;2024-02-14T04:28:23;10.80;99.90
6357;DHT22;3211;53.452;-2.264;2024-02-14T04:31:11;10.80;99.90
6357;DHT22;3211;53.452;-2.264;2024-02-14T04:33:58;10.80;99.90
6357;DHT22;3211;53.452;-2.264;2024-02-14T04:36:46;10.80;99.90
6357;DHT22;3211;53.452;-2.264;2024-02-14T04:39:35;10.80;99.90
6357;DHT22;3211;53.452;-2.264;2024-02-14T04:42:22;10.80;99.90
6357;DHT22;3211;53.452;-2.264;2024-02-14T04:45:09;10.80;99.90
6357;DHT22;3211;53.452;-2.264;2024-02-14T04:47:57;10.80;99.90
6357;DHT22;3211;53.452;-2.264;2024-02-14T04:50:44;10.90;99.90
6357;DHT22;3211;53.452;-2.264;2024-02-14T04:53:32;10.90;99.90
6357;DHT22;3211;53.452;-2.264;2024-02-14T04:56:20;10.90;99.90
6357;DHT22;3211;53.452;-2.264;2024-02-14T04:59:08;10.90;99.90
6357;DHT22;3211;53.452;-2.264;2024-02-14T05:01:55;10.90;99.90
6357;DHT22;3211;53.452;-2.264;2024-02-14T05:04:43;10.90;99.90
6357;DHT22;3211;53.452;-2.264;2024-02-14T05:07:30;11.00;99.90
6357;DHT22;3211;53.452;-2.264;2024-02-14T05:10:18;11.00;99.90
6357;DHT22;3211;53.452;-2.264;2024-02-14T05:13:07;11.00;99.90
6357;DHT22;3211;53.452;-2.264;2024-02-14T05:15:54;11.10;99.90
6357;DHT22;3211;53.452;-2.264;2024-02-14T05:18:42;11.10;99.90
6357;DHT22;3211;53.452;-2.264;2024-02-14T05:21:29;11.20;99.90
6357;DHT22;3211;53.452;-2.264;2024-02-14T05:24:16;11.10;99.90
6357;DHT22;3211;53.452;-2.264;2024-02-14T05:27:05;11.10;99.90
6357;DHT22;3211;53.452;-2.264;2024-02-14T05:29:53;11.10;99.90
6357;DHT22;3211;53.452;-2.264;2024-02-14T05:32:40;11.10;99.90
6357;DHT22;3211;53.452;-2.264;2024-02-14T05:35:28;11.10;99.90
6357;DHT22;3211;53.452;-2.264;2024-02-14T05:38:15;11.10;99.90
6357;DHT22;3211;53.452;-2.264;2024-02-14T05:41:05;11.10;99.90
6357;DHT22;3211;53.452;-2.264;2024-02-14T05:43:53;11.10;99.90
6357;DHT22;3211;53.452;-2.264;2024-02-14T05:46:42;11.10;99.90
6357;DHT22;3211;53.452;-2.264;2024-02-14T05:49:29;11.10;99.90
6357;DHT22;3211;53.452;-2.264;2024-02-14T05:52:16;11.10;99.90
6357;DHT22;3211;53.452;-2.264;2024-02-14T05:55:05;11.10;99.90
6357;DHT22;3211;53.452;-2.264;2024-02-14T05:57:52;11.10;99.90
6357;DHT22;3211;53.452;-2.264;2024-02-14T06:00:40;11.10;99.90
6357;DHT22;3211;53.452;-2.264;2024-02-14T06:03:28;11.10;99.90
6357;DHT22;3211;53.452;-2.264;2024-02-14T06:06:16;11.10;99.90
6357;DHT22;3211;53.452;-2.264;2024-02-14T06:09:03;11.10;99.90
6357;DHT22;3211;53.452;-2.264;2024-02-14T06:11:55;11.10;99.90
6357;DHT22;3211;53.452;-2.264;2024-02-14T06:14:43;11.10;99.90
6357;DHT22;3211;53.452;-2.264;2024-02-14T06:17:30;11.10;99.90
6357;DHT22;3211;53.452;-2.264;2024-02-14T06:20:18;11.10;99.90
6357;DHT22;3211;53.452;-2.264;2024-02-14T06:23:06;11.20;99.90
6357;DHT22;3211;53.452;-2.264;2024-02-14T06:25:54;11.20;99.90
6357;DHT22;3211;53.452;-2.264;2024-02-14T06:28:41;11.10;99.90
6357;DHT22;3211;53.452;-2.264;2024-02-14T06:31:29;11.10;99.90
6357;DHT22;3211;53.452;-2.264;2024-02-14T06:34:16;11.10;99.90
6357;DHT22;3211;53.452;-2.264;2024-02-14T06:37:06;11.10;99.90
6357;DHT22;3211;53.452;-2.264;2024-02-14T06:39:53;11.20;99.90
6357;DHT22;3211;53.452;-2.264;2024-02-14T06:42:40;11.10;99.90
6357;DHT22;3211;53.452;-2.264;2024-02-14T06:45:28;11.10;99.90
6357;DHT22;3211;53.452;-2.264;2024-02-14T06:48:15;11.10;99.90
6357;DHT22;3211;53.452;-2.264;2024-02-14T06:51:06;11.20;99.90
6357;DHT22;3211;53.452;-2.264;2024-02-14T06:53:55;11.20;99.90
6357;DHT22;3211;53.452;-2.264;2024-02-14T06:56:43;11.20;99.90
6357;DHT22;3211;53.452;-2.264;2024-02-14T06:59:30;11.20;99.90
6357;DHT22;3211;53.452;-2.264;2024-02-14T07:02:17;11.30;99.90
6357;DHT22;3211;53.452;-2.264;2024-02-14T07:05:05;11.30;99.90
6357;DHT22;3211;53.452;-2.264;2024-02-14T07:07:53;11.30;99.90
6357;DHT22;3211;53.452;-2.264;2024-02-14T07:10:42;11.30;99.90
6357;DHT22;3211;53.452;-2.264;2024-02-14T07:13:30;11.30;99.90
6357;DHT22;3211;53.452;-2.264;2024-02-14T07:16:17;11.30;99.90
6357;DHT22;3211;53.452;-2.264;2024-02-14T07:19:04;11.30;99.90
6357;DHT22;3211;53.452;-2.264;2024-02-14T07:21:51;11.30;99.90
6357;DHT22;3211;53.452;-2.264;2024-02-14T07:24:39;11.40;99.90
6357;DHT22;3211;53.452;-2.264;2024-02-14T07:27:27;11.30;99.90
6357;DHT22;3211;53.452;-2.264;2024-02-14T07:30:16;11.30;99.90
6357;DHT22;3211;53.452;-2.264;2024-02-14T07:33:03;11.30;99.90
6357;DHT22;3211;53.452;-2.264;2024-02-14T07:35:51;11.30;99.90
6357;DHT22;3211;53.452;-2.264;2024-02-14T07:38:38;11.30;99.90
6357;DHT22;3211;53.452;-2.264;2024-02-14T07:41:25;11.30;99.90
6357;DHT22;3211;53.452;-2.264;2024-02-14T07:44:14;11.20;99.90
6357;DHT22;3211;53.452;-2.264;2024-02-14T07:47:02;11.30;99.90
6357;DHT22;3211;53.452;-2.264;2024-02-14T07:49:49;11.20;99.90
6357;DHT22;3211;53.452;-2.264;2024-02-14T07:52:41;11.20;99.90
6357;DHT22;3211;53.452;-2.264;2024-02-14T07:55:29;11.20;99.90
6357;DHT22;3211;53.452;-2.264;2024-02-14T07:58:17;11.20;99.90
6357;DHT22;3211;53.452;-2.264;2024-02-14T08:01:05;11.20;99.90
6357;DHT22;3211;53.452;-2.264;2024-02-14T08:03:53;11.40;99.90
6357;DHT22;3211;53.452;-2.264;2024-02-14T08:06:40;11.20;99.90
6357;DHT22;3211;53.452;-2.264;2024-02-14T08:09:27;11.20;99.90
6357;DHT22;3211;53.452;-2.264;2024-02-14T08:12:14;11.20;99.90
6357;DHT22;3211;53.452;-2.264;2024-02-14T08:15:02;11.30;99.90
6357;DHT22;3211;53.452;-2.264;2024-02-14T08:17:53;11.30;99.90
6357;DHT22;3211;53.452;-2.264;2024-02-14T08:20:42;11.30;99.90
6357;DHT22;3211;53.452;-2.264;2024-02-14T08:23:29;11.30;99.90
6357;DHT22;3211;53.452;-2.264;2024-02-14T08:26:16;11.30;99.90
6357;DHT22;3211;53.452;-2.264;2024-02-14T08:29:04;11.40;99.90
6357;DHT22;3211;53.452;-2.264;2024-02-14T08:31:51;11.40;99.90
6357;DHT22;3211;53.452;-2.264;2024-02-14T08:34:40;11.40;99.90
6357;DHT22;3211;53.452;-2.264;2024-02-14T08:37:27;11.50;99.90
6357;DHT22;3211;53.452;-2.264;2024-02-14T08:40:15;11.50;99.90
6357;DHT22;3211;53.452;-2.264;2024-02-14T08:43:02;11.50;99.90
6357;DHT22;3211;53.452;-2.264;2024-02-14T08:45:50;11.50;99.90
6357;DHT22;3211;53.452;-2.264;2024-02-14T08:48:38;11.50;99.90
6357;DHT22;3211;53.452;-2.264;2024-02-14T08:51:29;11.60;99.90
6357;DHT22;3211;53.452;-2.264;2024-02-14T08:54:16;11.60;99.90
6357;DHT22;3211;53.452;-2.264;2024-02-14T08:57:04;11.70;99.90
6357;DHT22;3211;53.452;-2.264;2024-02-14T08:59:51;11.80;99.90
6357;DHT22;3211;53.452;-2.264;2024-02-14T09:02:38;11.80;99.90
6357;DHT22;3211;53.452;-2.264;2024-02-14T09:05:25;11.80;99.90
6357;DHT22;3211;53.452;-2.264;2024-02-14T09:08:15;11.80;99.90
6357;DHT22;3211;53.452;-2.264;2024-02-14T09:11:02;11.80;99.90
6357;DHT22;3211;53.452;-2.264;2024-02-14T09:13:50;11.90;99.90
6357;DHT22;3211;53.452;-2.264;2024-02-14T09:16:40;11.90;99.90
6357;DHT22;3211;53.452;-2.264;2024-02-14T09:19:27;11.90;99.90
6357;DHT22;3211;53.452;-2.264;2024-02-14T09:22:15;11.90;99.90
6357;DHT22;3211;53.452;-2.264;2024-02-14T09:25:08;11.90;99.90
6357;DHT22;3211;53.452;-2.264;2024-02-14T09:27:56;11.90;99.90
6357;DHT22;3211;53.452;-2.264;2024-02-14T09:30:43;12.00;99.90
6357;DHT22;3211;53.452;-2.264;2024-02-14T09:33:31;12.00;99.90
6357;DHT22;3211;53.452;-2.264;2024-02-14T09:36:18;12.10;99.90
6357;DHT22;3211;53.452;-2.264;2024-02-14T09:39:06;12.20;99.90
6357;DHT22;3211;53.452;-2.264;2024-02-14T09:41:59;12.10;99.90
6357;DHT22;3211;53.452;-2.264;2024-02-14T09:44:48;12.10;99.90
6357;DHT22;3211;53.452;-2.264;2024-02-14T09:47:39;12.10;99.90
6357;DHT22;3211;53.452;-2.264;2024-02-14T09:50:29;12.20;99.90
6357;DHT22;3211;53.452;-2.264;2024-02-14T09:53:18;12.20;99.90
6357;DHT22;3211;53.452;-2.264;2024-02-14T09:56:06;12.20;99.90
6357;DHT22;3211;53.452;-2.264;2024-02-14T09:58:57;12.20;99.90
6357;DHT22;3211;53.452;-2.264;2024-02-14T10:01:46;12.30;99.90
6357;DHT22;3211;53.452;-2.264;2024-02-14T10:04:34;12.30;99.90
6357;DHT22;3211;53.452;-2.264;2024-02-14T10:07:22;12.30;99.90
6357;DHT22;3211;53.452;-2.264;2024-02-14T10:10:10;12.30;99.90
6357;DHT22;3211;53.452;-2.264;2024-02-14T10:12:57;12.30;99.90
6357;DHT22;3211;53.452;-2.264;2024-02-14T10:15:46;12.20;99.90
6357;DHT22;3211;53.452;-2.264;2024-02-14T10:18:34;12.20;99.90
6357;DHT22;3211;53.452;-2.264;2024-02-14T10:21:22;12.10;99.90
6357;DHT22;3211;53.452;-2.264;2024-02-14T10:24:11;12.20;99.90
6357;DHT22;3211;53.452;-2.264;2024-02-14T10:27:00;12.10;99.90
6357;DHT22;3211;53.452;-2.264;2024-02-14T10:29:47;12.10;99.90
6357;DHT22;3211;53.452;-2.264;2024-02-14T10:32:36;12.10;99.90
6357;DHT22;3211;53.452;-2.264;2024-02-14T10:35:23;12.10;99.90
6357;DHT22;3211;53.452;-2.264;2024-02-14T10:38:11;12.10;99.90
6357;DHT22;3211;53.452;-2.264;2024-02-14T10:41:00;12.10;99.90
6357;DHT22;3211;53.452;-2.264;2024-02-14T10:43:47;12.10;99.90
6357;DHT22;3211;53.452;-2.264;2024-02-14T10:46:37;12.10;99.90
6357;DHT22;3211;53.452;-2.264;2024-02-14T10:49:28;12.20;99.90
6357;DHT22;3211;53.452;-2.264;2024-02-14T10:52:16;12.20;99.90
6357;DHT22;3211;53.452;-2.264;2024-02-14T10:55:05;12.30;99.90
6357;DHT22;3211;53.452;-2.264;2024-02-14T10:57:53;12.40;99.90
6357;DHT22;3211;53.452;-2.264;2024-02-14T11:00:42;12.40;99.90
6357;DHT22;3211;53.452;-2.264;2024-02-14T11:03:29;12.40;99.90
6357;DHT22;3211;53.452;-2.264;2024-02-14T11:06:18;12.50;99.90
6357;DHT22;3211;53.452;-2.264;2024-02-14T11:09:05;12.50;99.90
6357;DHT22;3211;53.452;-2.264;2024-02-14T11:12:00;12.50;99.90
6357;DHT22;3211;53.452;-2.264;2024-02-14T11:14:48;12.50;99.90
6357;DHT22;3211;53.452;-2.264;2024-02-14T11:17:39;12.60;99.90
6357;DHT22;3211;53.452;-2.264;2024-02-14T11:20:32;12.70;99.90
6357;DHT22;3211;53.452;-2.264;2024-02-14T11:23:23;12.80;99.90
6357;DHT22;3211;53.452;-2.264;2024-02-14T11:26:15;12.90;99.90
6357;DHT22;3211;53.452;-2.264;2024-02-14T11:29:04;13.00;99.90
6357;DHT22;3211;53.452;-2.264;2024-02-14T11:31:58;13.20;99.90
6357;DHT22;3211;53.452;-2.264;2024-02-14T11:34:53;13.20;99.90
6357;DHT22;3211;53.452;-2.264;2024-02-14T11:37:41;13.30;99.90
6357;DHT22;3211;53.452;-2.264;2024-02-14T11:40:29;13.30;99.90
6357;DHT22;3211;53.452;-2.264;2024-02-14T11:43:18;13.20;99.90
6357;DHT22;3211;53.452;-2.264;2024-02-14T11:46:05;13.30;99.90
6357;DHT22;3211;53.452;-2.264;2024-02-14T11:48:53;13.30;99.90
6357;DHT22;3211;53.452;-2.264;2024-02-14T11:51:40;13.30;99.90
6357;DHT22;3211;53.452;-2.264;2024-02-14T11:54:28;13.20;99.90
6357;DHT22;3211;53.452;-2.264;2024-02-14T11:57:18;13.30;99.90
6357;DHT22;3211;53.452;-2.264;2024-02-14T12:00:07;13.30;99.90
6357;DHT22;3211;53.452;-2.264;2024-02-14T12:02:55;13.20;99.90
6357;DHT22;3211;53.452;-2.264;2024-02-14T12:05:43;13.30;99.90
6357;DHT22;3211;53.452;-2.264;2024-02-14T12:08:31;13.30;99.90
6357;DHT22;3211;53.452;-2.264;2024-02-14T12:11:18;13.30;99.90
6357;DHT22;3211;53.452;-2.264;2024-02-14T12:14:07;13.30;99.90
6357;DHT22;3211;53.452;-2.264;2024-02-14T12:16:56;13.30;99.90
6357;DHT22;3211;53.452;-2.264;2024-02-14T12:19:46;13.30;99.90
6357;DHT22;3211;53.452;-2.264;2024-02-14T12:22:34;13.30;99.90
6357;DHT22;3211;53.452;-2.264;2024-02-14T12:25:21;13.30;99.90
6357;DHT22;3211;53.452;-2.264;2024-02-14T12:28:12;13.30;99.90
6357;DHT22;3211;53.452;-2.264;2024-02-14T12:31:01;13.30;99.90
6357;DHT22;3211;53.452;-2.264;2024-02-14T12:33:48;13.30;99.90
6357;DHT22;3211;53.452;-2.264;2024-02-14T12:36:36;13.40;99.90
6357;DHT22;3211;53.452;-2.264;2024-02-14T12:39:24;13.50;99.90
6357;DHT22;3211;53.452;-2.264;2024-02-14T12:42:12;13.60;99.90
6357;DHT22;3211;53.452;-2.264;2024-02-14T12:44:59;13.50;99.90
6357;DHT22;3211;53.452;-2.264;2024-02-14T12:47:48;13.50;99.90
6357;DHT22;3211;53.452;-2.264;2024-02-14T12:50:35;13.40;99.90
6357;DHT22;3211;53.452;-2.264;2024-02-14T12:53:23;13.50;99.90
6357;DHT22;3211;53.452;-2.264;2024-02-14T12:56:11;13.50;99.90
6357;DHT22;3211;53.452;-2.264;2024-02-14T12:58:58;13.50;99.90
6357;DHT22;3211;53.452;-2.264;2024-02-14T13:01:46;13.50;99.90
6357;DHT22;3211;53.452;-2.264;2024-02-14T13:04:36;13.40;99.90
6357;DHT22;3211;53.452;-2.264;2024-02-14T13:07:24;13.40;99.90
6357;DHT22;3211;53.452;-2.264;2024-02-14T13:10:12;13.40;99.90
6357;DHT22;3211;53.452;-2.264;2024-02-14T13:12:59;13.50;99.90
6357;DHT22;3211;53.452;-2.264;2024-02-14T13:15:46;13.50;99.90
6357;DHT22;3211;53.452;-2.264;2024-02-14T13:18:33;13.50;99.90
6357;DHT22;3211;53.452;-2.264;2024-02-14T13:21:22;13.50;99.90
6357;DHT22;3211;53.452;-2.264;2024-02-14T13:24:10;13.50;99.90
6357;DHT22;3211;53.452;-2.264;2024-02-14T13:26:58;13.60;99.90
6357;DHT22;3211;53.452;-2.264;2024-02-14T13:29:45;13.60;99.90
6357;DHT22;3211;53.452;-2.264;2024-02-14T13:32:33;13.60;99.90
6357;DHT22;3211;53.452;-2.264;2024-02-14T13:35:20;13.60;99.90
6357;DHT22;3211;53.452;-2.264;2024-02-14T13:38:09;13.60;99.90
6357;DHT22;3211;53.452;-2.264;2024-02-14T13:40:56;13.70;99.90
6357;DHT22;3211;53.452;-2.264;2024-02-14T13:43:44;13.80;99.90
6357;DHT22;3211;53.452;-2.264;2024-02-14T13:46:31;13.80;99.90
6357;DHT22;3211;53.452;-2.264;2024-02-14T13:49:18;13.80;99.90
6357;DHT22;3211;53.452;-2.264;2024-02-14T13:52:07;13.80;99.90
6357;DHT22;3211;53.452;-2.264;2024-02-14T13:54:56;13.80;99.90
6357;DHT22;3211;53.452;-2.264;2024-02-14T13:57:44;13.80;99.90
6357;DHT22;3211;53.452;-2.264;2024-02-14T14:00:31;13.80;99.90
6357;DHT22;3211;53.452;-2.264;2024-02-14T14:03:19;13.80;99.90
6357;DHT22;3211;53.452;-2.264;2024-02-14T14:06:07;13.80;99.90
6357;DHT22;3211;53.452;-2.264;2024-02-14T14:08:54;13.80;99.90
6357;DHT22;3211;53.452;-2.264;2024-02-14T14:11:43;13.90;99.90
6357;DHT22;3211;53.452;-2.264;2024-02-14T14:14:32;14.00;99.90
6357;DHT22;3211;53.452;-2.264;2024-02-14T14:17:19;14.00;99.90
6357;DHT22;3211;53.452;-2.264;2024-02-14T14:20:07;14.10;99.90
6357;DHT22;3211;53.452;-2.264;2024-02-14T14:22:54;14.10;99.90
6357;DHT22;3211;53.452;-2.264;2024-02-14T14:25:41;14.20;99.90
6357;DHT22;3211;53.452;-2.264;2024-02-14T14:28:30;14.20;99.90
6357;DHT22;3211;53.452;-2.264;2024-02-14T14:31:18;14.30;99.90
6357;DHT22;3211;53.452;-2.264;2024-02-14T14:34:05;14.40;99.90
6357;DHT22;3211;53.452;-2.264;2024-02-14T14:36:53;14.40;99.90
6357;DHT22;3211;53.452;-2.264;2024-02-14T14:39:40;14.40;99.90
6357;DHT22;3211;53.452;-2.264;2024-02-14T14:42:29;14.50;99.90
6357;DHT22;3211;53.452;-2.264;2024-02-14T14:45:18;14.40;99.90
6357;DHT22;3211;53.452;-2.264;2024-02-14T14:48:05;14.40;99.90
6357;DHT22;3211;53.452;-2.264;2024-02-14T14:50:54;14.40;99.90
6357;DHT22;3211;53.452;-2.264;2024-02-14T14:53:41;14.40;99.90
6357;DHT22;3211;53.452;-2.264;2024-02-14T14:56:29;14.40;99.90
6357;DHT22;3211;53.452;-2.264;2024-02-14T14:59:16;14.40;99.90
6357;DHT22;3211;53.452;-2.264;2024-02-14T15:02:06;14.30;99.90
6357;DHT22;3211;53.452;-2.264;2024-02-14T15:04:53;14.30;99.90
6357;DHT22;3211;53.452;-2.264;2024-02-14T15:07:41;14.30;99.90
6357;DHT22;3211;53.452;-2.264;2024-02-14T15:10:28;14.30;99.90
6357;DHT22;3211;53.452;-2.264;2024-02-14T15:13:15;14.30;99.90
6357;DHT22;3211;53.452;-2.264;2024-02-14T15:16:03;14.30;99.90
6357;DHT22;3211;53.452;-2.264;2024-02-14T15:18:53;14.30;99.90
6357;DHT22;3211;53.452;-2.264;2024-02-14T15:21:41;14.30;99.90
6357;DHT22;3211;53.452;-2.264;2024-02-14T15:24:28;14.30;99.90
6357;DHT22;3211;53.452;-2.264;2024-02-14T15:27:15;14.20;99.90
6357;DHT22;3211;53.452;-2.264;2024-02-14T15:30:08;14.20;99.90
6357;DHT22;3211;53.452;-2.264;2024-02-14T15:33:13;14.20;99.90
6357;DHT22;3211;53.452;-2.264;2024-02-14T15:36:11;14.20;99.90
6357;DHT22;3211;53.452;-2.264;2024-02-14T15:38:59;14.10;99.90
6357;DHT22;3211;53.452;-2.264;2024-02-14T15:41:46;14.10;99.90
6357;DHT22;3211;53.452;-2.264;2024-02-14T15:44:33;14.10;99.90
6357;DHT22;3211;53.452;-2.264;2024-02-14T15:47:21;14.00;99.90
6357;DHT22;3211;53.452;-2.264;2024-02-14T15:50:08;14.00;99.90
6357;DHT22;3211;53.452;-2.264;2024-02-14T15:52:57;13.90;99.90
6357;DHT22;3211;53.452;-2.264;2024-02-14T15:55:44;13.90;99.90
6357;DHT22;3211;53.452;-2.264;2024-02-14T15:58:31;13.90;99.90
6357;DHT22;3211;53.452;-2.264;2024-02-14T16:01:19;13.90;99.90
6357;DHT22;3211;53.452;-2.264;2024-02-14T16:04:06;13.90;99.90
6357;DHT22;3211;53.452;-2.264;2024-02-14T16:06:54;13.90;99.90
6357;DHT22;3211;53.452;-2.264;2024-02-14T16:09:42;13.90;99.90
6357;DHT22;3211;53.452;-2.264;2024-02-14T16:12:31;13.90;99.90
6357;DHT22;3211;53.452;-2.264;2024-02-14T16:15:19;13.80;99.90
6357;DHT22;3211;53.452;-2.264;2024-02-14T16:18:06;13.80;99.90
6357;DHT22;3211;53.452;-2.264;2024-02-14T16:20:53;13.80;99.90
6357;DHT22;3211;53.452;-2.264;2024-02-14T16:23:41;13.80;99.90
6357;DHT22;3211;53.452;-2.264;2024-02-14T16:26:29;13.80;99.90
6357;DHT22;3211;53.452;-2.264;2024-02-14T16:29:17;13.80;99.90
6357;DHT22;3211;53.452;-2.264;2024-02-14T16:32:05;13.80;99.90
6357;DHT22;3211;53.452;-2.264;2024-02-14T16:34:52;13.80;99.90
6357;DHT22;3211;53.452;-2.264;2024-02-14T16:37:40;13.80;99.90
6357;DHT22;3211;53.452;-2.264;2024-02-14T16:40:28;13.70;99.90
6357;DHT22;3211;53.452;-2.264;2024-02-14T16:43:18;13.80;99.90
6357;DHT22;3211;53.452;-2.264;2024-02-14T16:46:06;13.70;99.90
6357;DHT22;3211;53.452;-2.264;2024-02-14T16:48:53;13.70;99.90
6357;DHT22;3211;53.452;-2.264;2024-02-14T16:51:40;13.70;99.90
6357;DHT22;3211;53.452;-2.264;2024-02-14T16:54:28;13.70;99.90
6357;DHT22;3211;53.452;-2.264;2024-02-14T16:57:17;13.70;99.90
6357;DHT22;3211;53.452;-2.264;2024-02-14T17:00:06;13.70;99.90
6357;DHT22;3211;53.452;-2.264;2024-02-14T17:02:55;13.70;99.90
6357;DHT22;3211;53.452;-2.264;2024-02-14T17:05:42;13.80;99.90
6357;DHT22;3211;53.452;-2.264;2024-02-14T17:08:31;13.80;99.90
6357;DHT22;3211;53.452;-2.264;2024-02-14T17:11:18;13.70;99.90
6357;DHT22;3211;53.452;-2.264;2024-02-14T17:14:06;13.80;99.90
6357;DHT22;3211;53.452;-2.264;2024-02-14T17:16:56;13.70;99.90
6357;DHT22;3211;53.452;-2.264;2024-02-14T17:19:45;13.70;99.90
6357;DHT22;3211;53.452;-2.264;2024-02-14T17:22:32;13.70;99.90
6357;DHT22;3211;53.452;-2.264;2024-02-14T17:25:20;13.60;99.90
6357;DHT22;3211;53.452;-2.264;2024-02-14T17:28:07;13.60;99.90
6357;DHT22;3211;53.452;-2.264;2024-02-14T17:30:55;13.60;99.90
6357;DHT22;3211;53.452;-2.264;2024-02-14T17:33:44;13.50;99.90
6357;DHT22;3211;53.452;-2.264;2024-02-14T17:36:33;13.50;99.90
6357;DHT22;3211;53.452;-2.264;2024-02-14T17:39:21;13.50;99.90
6357;DHT22;3211;53.452;-2.264;2024-02-14T17:42:09;13.50;99.90
6357;DHT22;3211;53.452;-2.264;2024-02-14T17:44:56;13.50;99.90
6357;DHT22;3211;53.452;-2.264;2024-02-14T17:47:43;13.40;99.90
6357;DHT22;3211;53.452;-2.264;2024-02-14T17:50:32;13.40;99.90
6357;DHT22;3211;53.452;-2.264;2024-02-14T17:53:19;13.30;99.90
6357;DHT22;3211;53.452;-2.264;2024-02-14T17:56:07;13.40;99.90
6357;DHT22;3211;53.452;-2.264;2024-02-14T17:58:55;13.30;99.90
6357;DHT22;3211;53.452;-2.264;2024-02-14T18:01:42;13.30;99.90